Adair Village, Oregon
Current Conditions -  °F | °C
As of 11:35 AM on Thursday 30 Oct 2014 (Local Time) from KCVO Reporting Station
Overcast Overcast  
Wind Chill: 14°   Ceiling: 300
Heat Index: 14°   Visibility: 3mi
Dew Point: 13°   Wind: 5mph
Humidity: 94%   Direction: 80°E
Pressure: 29.87"   Gusts: NA
Location:  44.6364°N, 123.28°W
Report Text: KCVO 301835Z AUTO 08004KT 3SM BKN003 OVC075 14/13 A2987 RMK AO1
Loading
Personal Weather Stations






























Interactive Weather Map New forecast layout! Learn more

10-Day Weather Forecast

Advertisements
Track Severe Weather on mobile